Time;durP1;ratioP1;P1;durP2;ratioP2;P2;SDS_P1;SDS_P2;PMS_P1;PMS_P2;Temp;Humidity;BMP_temperature;BMP_pressure;BME280_temperature;BME280_humidity;BME280_pressure;Samples;Min_cycle;Max_cycle;Signal;HPM_P1;HPM_P2
2022/11/10 00:00:23;;;;;;;33.15;12.20;;;;;;;;;;4995062;28;20035;-27
2022/11/10 00:02:49;;;;;;;35.67;14.00;;;;;;;;;;4994708;28;20030;-27
2022/11/10 00:05:15;;;;;;;34.92;13.45;;;;;;;;;;4995012;28;20034;-27
2022/11/10 00:07:41;;;;;;;33.75;12.52;;;;;;;;;;4995307;28;20037;-27
2022/11/10 00:10:07;;;;;;;33.65;13.50;;;;;;;;;;4995254;28;20045;-27
2022/11/10 00:12:34;;;;;;;38.03;12.95;;;;;;;;;;4995081;28;20092;-27
2022/11/10 00:17:45;;;;;;;40.65;13.82;;;;;;;;;;4995225;28;20077;-27
2022/11/10 00:20:12;;;;;;;38.63;13.57;;;;;;;;;;4995204;28;20362;-27
2022/11/10 00:22:39;;;;;;;46.10;16.45;;;;;;;;;;4994808;28;20476;-27
2022/11/10 00:25:06;;;;;;;37.50;12.68;;;;;;;;;;4994888;28;20037;-27
2022/11/10 00:27:33;;;;;;;36.78;14.30;;;;;;;;;;4995118;28;20037;-27
2022/11/10 00:29:59;;;;;;;31.80;12.80;;;;;;;;;;4995123;28;20026;-27
2022/11/10 00:32:26;;;;;;;36.90;13.23;;;;;;;;;;4995295;28;20042;-27
2022/11/10 00:34:52;;;;;;;30.02;12.63;;;;;;;;;;4995293;28;20343;-27
2022/11/10 00:37:18;;;;;;;34.38;12.52;;;;;;;;;;4998297;28;20358;-27
2022/11/10 00:39:44;;;;;;;43.13;13.65;;;;;;;;;;4998622;28;20041;-27
2022/11/10 00:42:10;;;;;;;28.50;13.35;;;;;;;;;;4998198;28;20033;-27
2022/11/10 00:44:37;;;;;;;45.85;13.75;;;;;;;;;;4998215;28;20027;-27
2022/11/10 00:47:03;;;;;;;38.97;13.95;;;;;;;;;;4998224;28;20070;-27
2022/11/10 00:49:29;;;;;;;29.08;12.13;;;;;;;;;;4998165;28;20034;-27
2022/11/10 00:51:55;;;;;;;43.92;16.70;;;;;;;;;;4998290;28;20406;-27
2022/11/10 00:54:21;;;;;;;34.13;11.38;;;;;;;;;;4998313;28;20370;-26
2022/11/10 00:56:47;;;;;;;29.92;13.45;;;;;;;;;;4997941;28;20034;-26
2022/11/10 00:59:13;;;;;;;30.75;13.68;;;;;;;;;;4998240;28;20064;-26
2022/11/10 01:01:40;;;;;;;38.28;14.13;;;;;;;;;;4997943;28;20062;-26
2022/11/10 01:04:06;;;;;;;28.10;12.63;;;;;;;;;;4997649;28;20042;-26
2022/11/10 01:06:32;;;;;;;36.53;11.77;;;;;;;;;;4998099;28;20023;-26
2022/11/10 01:08:58;;;;;;;31.17;12.68;;;;;;;;;;4998102;28;20113;-26
2022/11/10 01:11:26;;;;;;;31.42;12.48;;;;;;;;;;4998337;28;20033;-26
2022/11/10 01:13:53;;;;;;;29.80;12.32;;;;;;;;;;4997736;28;20037;-26
2022/11/10 01:16:23;;;;;;;26.80;12.07;;;;;;;;;;4997909;28;20041;-26
2022/11/10 01:18:50;;;;;;;30.73;12.80;;;;;;;;;;4997682;28;20034;-26
2022/11/10 01:21:16;;;;;;;35.88;12.52;;;;;;;;;;4997874;28;20577;-26
2022/11/10 01:23:43;;;;;;;30.20;12.55;;;;;;;;;;4997415;28;20022;-26
2022/11/10 01:26:09;;;;;;;29.08;12.18;;;;;;;;;;4998063;28;20038;-27
2022/11/10 01:28:35;;;;;;;32.70;13.38;;;;;;;;;;4998022;28;20026;-27
2022/11/10 01:31:03;;;;;;;26.42;10.82;;;;;;;;;;4997435;28;20041;-27
2022/11/10 01:33:30;;;;;;;31.65;12.88;;;;;;;;;;4997871;28;20034;-27
2022/11/10 01:35:56;;;;;;;33.97;13.23;;;;;;;;;;4997549;28;20034;-27
2022/11/10 01:38:23;;;;;;;30.98;11.45;;;;;;;;;;4997306;28;20114;-27
2022/11/10 01:40:49;;;;;;;25.88;10.98;;;;;;;;;;4997212;28;20018;-27
2022/11/10 01:43:15;;;;;;;33.92;14.23;;;;;;;;;;4997387;28;20133;-27
2022/11/10 01:45:44;;;;;;;23.02;11.38;;;;;;;;;;4997439;28;20023;-27
2022/11/10 01:48:14;;;;;;;22.10;11.23;;;;;;;;;;4980155;28;20030;-27
2022/11/10 01:50:41;;;;;;;25.88;12.65;;;;;;;;;;4979919;28;20026;-27
2022/11/10 01:53:12;;;;;;;34.28;12.13;;;;;;;;;;4997175;28;20462;-26
2022/11/10 01:55:41;;;;;;;23.40;12.73;;;;;;;;;;4997487;28;20331;-26
2022/11/10 01:58:07;;;;;;;35.70;13.30;;;;;;;;;;4996868;28;20030;-26
2022/11/10 02:00:33;;;;;;;27.92;13.27;;;;;;;;;;4996794;28;20042;-26
2022/11/10 02:03:05;;;;;;;26.80;10.93;;;;;;;;;;4996739;28;20454;-26
2022/11/10 02:05:32;;;;;;;23.02;11.73;;;;;;;;;;4997086;28;20035;-26
2022/11/10 02:07:59;;;;;;;32.17;12.05;;;;;;;;;;4996703;28;20362;-26
2022/11/10 02:10:25;;;;;;;30.65;13.50;;;;;;;;;;4996665;28;20026;-26
2022/11/10 02:12:51;;;;;;;27.55;11.05;;;;;;;;;;4996555;28;20022;-26
2022/11/10 02:15:17;;;;;;;25.15;11.20;;;;;;;;;;4996848;28;20026;-27
2022/11/10 02:17:46;;;;;;;28.40;12.13;;;;;;;;;;4996444;28;20165;-27
2022/11/10 02:20:13;;;;;;;36.72;12.10;;;;;;;;;;4996773;28;20041;-26
2022/11/10 02:22:39;;;;;;;32.10;12.73;;;;;;;;;;4996547;28;20027;-26
2022/11/10 02:25:06;;;;;;;38.00;12.45;;;;;;;;;;4996927;28;20031;-26
2022/11/10 02:27:32;;;;;;;33.70;11.25;;;;;;;;;;4996285;28;20050;-26
2022/11/10 02:29:58;;;;;;;29.58;11.82;;;;;;;;;;4996310;28;20045;-27
2022/11/10 02:32:25;;;;;;;25.50;12.15;;;;;;;;;;4996188;28;20065;-26
2022/11/10 02:34:51;;;;;;;26.17;12.00;;;;;;;;;;4996489;28;20081;-26
2022/11/10 02:37:17;;;;;;;24.50;10.77;;;;;;;;;;4996311;28;20100;-27
2022/11/10 02:39:43;;;;;;;25.38;12.77;;;;;;;;;;4996663;28;20022;-27
2022/11/10 02:42:09;;;;;;;26.08;11.10;;;;;;;;;;4996052;28;20022;-27
2022/11/10 02:44:39;;;;;;;27.13;10.20;;;;;;;;;;4996048;28;20105;-27
2022/11/10 02:47:05;;;;;;;20.45;10.80;;;;;;;;;;4995917;28;20126;-26
2022/11/10 02:49:32;;;;;;;29.15;11.85;;;;;;;;;;4996246;28;20347;-27
2022/11/10 02:51:58;;;;;;;21.65;10.88;;;;;;;;;;4996119;28;20038;-27
2022/11/10 02:54:24;;;;;;;31.20;11.18;;;;;;;;;;4995898;28;20073;-26
2022/11/10 02:56:50;;;;;;;23.88;10.13;;;;;;;;;;4996073;28;20049;-27
2022/11/10 02:59:16;;;;;;;22.20;10.77;;;;;;;;;;4995220;28;20380;-27
2022/11/10 03:01:43;;;;;;;23.67;10.48;;;;;;;;;;4995832;28;20101;-27
2022/11/10 03:04:09;;;;;;;25.20;11.30;;;;;;;;;;4995563;28;20061;-27
2022/11/10 03:06:35;;;;;;;34.08;13.38;;;;;;;;;;4995651;28;20026;-27
2022/11/10 03:09:01;;;;;;;22.65;10.43;;;;;;;;;;4995700;28;20519;-27
2022/11/10 03:11:27;;;;;;;27.13;10.48;;;;;;;;;;4995673;28;20031;-27
2022/11/10 03:13:53;;;;;;;46.22;10.68;;;;;;;;;;4995535;28;20060;-27
2022/11/10 03:16:19;;;;;;;30.92;11.25;;;;;;;;;;4995492;28;20023;-27
2022/11/10 03:18:45;;;;;;;22.15;9.02;;;;;;;;;;4995549;28;20114;-27
2022/11/10 03:21:12;;;;;;;26.50;12.32;;;;;;;;;;4996041;28;20045;-27
2022/11/10 03:23:38;;;;;;;26.40;9.25;;;;;;;;;;4995433;28;20453;-27
2022/11/10 03:26:04;;;;;;;21.20;8.85;;;;;;;;;;4996193;28;20117;-27
2022/11/10 03:28:30;;;;;;;22.15;11.05;;;;;;;;;;4995413;28;20453;-27
2022/11/10 03:30:57;;;;;;;28.98;9.30;;;;;;;;;;4995612;28;20036;-27
2022/11/10 03:33:23;;;;;;;24.70;9.60;;;;;;;;;;4995562;28;20030;-27
2022/11/10 03:35:49;;;;;;;22.77;10.73;;;;;;;;;;4995269;28;20125;-27
2022/11/10 03:38:15;;;;;;;22.27;10.80;;;;;;;;;;4995579;28;20018;-26
2022/11/10 03:40:41;;;;;;;27.48;11.65;;;;;;;;;;4995528;28;20050;-27
2022/11/10 03:43:08;;;;;;;32.70;13.38;;;;;;;;;;4995138;28;20101;-27
2022/11/10 03:45:34;;;;;;;24.45;10.27;;;;;;;;;;4995502;28;20342;-27
2022/11/10 03:48:00;;;;;;;28.92;11.13;;;;;;;;;;4995508;28;20043;-27
2022/11/10 03:50:26;;;;;;;21.95;10.38;;;;;;;;;;4995124;28;20053;-27
2022/11/10 03:52:52;;;;;;;22.35;11.48;;;;;;;;;;4995268;28;20034;-27
2022/11/10 03:55:19;;;;;;;25.17;10.40;;;;;;;;;;4995170;28;20508;-26
2022/11/10 03:57:45;;;;;;;28.65;11.52;;;;;;;;;;4994989;28;20026;-26
2022/11/10 04:00:13;;;;;;;21.45;10.05;;;;;;;;;;4995098;28;20034;-26
2022/11/10 04:02:39;;;;;;;22.00;10.10;;;;;;;;;;4995278;28;20022;-26
2022/11/10 04:10:45;;;;;;;23.67;11.35;;;;;;;;;;4997014;28;20172;-27
2022/11/10 04:15:56;;;;;;;23.40;10.52;;;;;;;;;;4999311;28;20097;-27
2022/11/10 04:18:28;;;;;;;24.70;11.55;;;;;;;;;;4999057;28;20033;-26
2022/11/10 04:20:58;;;;;;;23.95;10.32;;;;;;;;;;4999046;28;20413;-26
2022/11/10 04:23:26;;;;;;;25.55;10.30;;;;;;;;;;4998609;28;20061;-26
2022/11/10 04:28:41;;;;;;;20.77;10.63;;;;;;;;;;4998906;28;20049;-26
2022/11/10 04:31:08;;;;;;;30.55;11.57;;;;;;;;;;4998532;28;20097;-26
2022/11/10 04:33:35;;;;;;;25.33;10.18;;;;;;;;;;4998420;28;20026;-27
2022/11/10 04:36:01;;;;;;;23.63;9.93;;;;;;;;;;4998609;28;20105;-27
2022/11/10 04:38:27;;;;;;;29.02;11.57;;;;;;;;;;4998360;28;20035;-27
2022/11/10 04:40:53;;;;;;;22.77;9.40;;;;;;;;;;4998621;28;20441;-26
2022/11/10 04:43:19;;;;;;;24.92;11.27;;;;;;;;;;4998122;28;20034;-26
2022/11/10 04:45:45;;;;;;;25.27;9.73;;;;;;;;;;4998692;28;20023;-26
2022/11/10 04:48:12;;;;;;;28.48;10.20;;;;;;;;;;4998651;28;20403;-26
2022/11/10 04:50:38;;;;;;;26.33;12.07;;;;;;;;;;4998644;28;20030;-26
2022/11/10 04:53:04;;;;;;;21.52;10.05;;;;;;;;;;4998127;28;20038;-26
2022/11/10 04:55:30;;;;;;;22.42;10.27;;;;;;;;;;4998618;28;20022;-26
2022/11/10 04:57:56;;;;;;;22.27;9.98;;;;;;;;;;4998996;28;20327;-26
2022/11/10 05:00:22;;;;;;;15.90;8.93;;;;;;;;;;4997959;28;20026;-26
2022/11/10 05:02:48;;;;;;;21.83;9.60;;;;;;;;;;4997936;28;20128;-26
2022/11/10 05:05:15;;;;;;;25.45;9.63;;;;;;;;;;4998143;28;20346;-26
2022/11/10 05:07:41;;;;;;;21.45;10.65;;;;;;;;;;4998783;28;20041;-26
2022/11/10 05:10:07;;;;;;;21.75;9.77;;;;;;;;;;4997660;28;20022;-26
2022/11/10 05:12:34;;;;;;;25.30;10.30;;;;;;;;;;4997977;28;20455;-26
2022/11/10 05:15:00;;;;;;;23.63;9.15;;;;;;;;;;4997699;28;20122;-26
2022/11/10 05:17:26;;;;;;;19.55;10.45;;;;;;;;;;4997561;28;20041;-26
2022/11/10 05:19:52;;;;;;;18.98;9.60;;;;;;;;;;4997626;28;20089;-26
2022/11/10 05:22:18;;;;;;;25.40;9.77;;;;;;;;;;4996384;28;20034;-26
2022/11/10 05:24:44;;;;;;;22.17;10.05;;;;;;;;;;4997428;28;20029;-26
2022/11/10 05:27:11;;;;;;;30.83;9.60;;;;;;;;;;4997393;28;20434;-26
2022/11/10 05:29:37;;;;;;;18.80;8.98;;;;;;;;;;4997848;28;20033;-26
2022/11/10 05:32:03;;;;;;;23.10;10.45;;;;;;;;;;4997592;28;20030;-26
2022/11/10 05:34:29;;;;;;;19.67;9.57;;;;;;;;;;4997306;28;20034;-26
2022/11/10 05:36:55;;;;;;;18.55;9.48;;;;;;;;;;4997490;28;20018;-26
2022/11/10 05:39:21;;;;;;;19.63;10.00;;;;;;;;;;4997178;28;20030;-26
2022/11/10 05:41:47;;;;;;;16.13;7.90;;;;;;;;;;4997076;28;20025;-26
2022/11/10 05:44:13;;;;;;;16.90;10.25;;;;;;;;;;4997373;28;20131;-26
2022/11/10 05:46:40;;;;;;;19.10;9.32;;;;;;;;;;4997352;28;20101;-27
2022/11/10 05:49:06;;;;;;;23.70;9.85;;;;;;;;;;4997351;28;20093;-27
2022/11/10 05:51:32;;;;;;;20.27;10.35;;;;;;;;;;4996983;28;20421;-26
2022/11/10 05:53:58;;;;;;;29.90;9.48;;;;;;;;;;4997623;28;20061;-26
2022/11/10 05:56:24;;;;;;;20.98;10.35;;;;;;;;;;4997557;28;20438;-26
2022/11/10 05:58:50;;;;;;;23.20;9.90;;;;;;;;;;4996866;28;20030;-26
2022/11/10 06:03:59;;;;;;;25.42;9.65;;;;;;;;;;5027512;23;20101;-27
2022/11/10 06:06:25;;;;;;;21.55;9.45;;;;;;;;;;4996956;28;20061;-27
2022/11/10 06:08:51;;;;;;;16.80;9.38;;;;;;;;;;4996955;28;20026;-28
2022/11/10 06:11:19;;;;;;;22.08;9.23;;;;;;;;;;4996575;28;20041;-28
2022/11/10 06:13:45;;;;;;;25.60;10.00;;;;;;;;;;4996569;28;20034;-28
2022/11/10 06:16:11;;;;;;;18.35;8.55;;;;;;;;;;4996438;28;20468;-28
2022/11/10 06:18:37;;;;;;;21.25;9.05;;;;;;;;;;4996522;28;20516;-28
2022/11/10 06:21:03;;;;;;;21.00;8.90;;;;;;;;;;4996444;28;20084;-29
2022/11/10 06:23:30;;;;;;;20.92;10.77;;;;;;;;;;4996545;28;20432;-28
2022/11/10 06:25:56;;;;;;;19.45;9.63;;;;;;;;;;4996345;28;20022;-28
2022/11/10 06:28:22;;;;;;;18.83;9.23;;;;;;;;;;4996231;28;20046;-28
2022/11/10 06:30:48;;;;;;;19.70;9.30;;;;;;;;;;4996123;28;20096;-28
2022/11/10 06:33:14;;;;;;;17.67;9.13;;;;;;;;;;4995898;28;20504;-28
2022/11/10 06:35:40;;;;;;;18.85;10.05;;;;;;;;;;4996031;28;20022;-28
2022/11/10 06:38:09;;;;;;;22.10;9.20;;;;;;;;;;4996079;28;20026;-28
2022/11/10 06:40:35;;;;;;;23.35;9.60;;;;;;;;;;4996296;28;20362;-28
2022/11/10 06:43:01;;;;;;;15.77;8.07;;;;;;;;;;4996172;28;20126;-28
2022/11/10 06:45:28;;;;;;;23.25;8.85;;;;;;;;;;4995909;28;20468;-28
2022/11/10 06:48:07;;;;;;;31.17;10.25;;;;;;;;;;4995671;28;20206;-29
2022/11/10 06:50:33;;;;;;;23.42;8.55;;;;;;;;;;4996132;28;20360;-28
2022/11/10 06:53:00;;;;;;;17.95;9.50;;;;;;;;;;4995768;28;20448;-28
2022/11/10 06:55:26;;;;;;;19.42;9.13;;;;;;;;;;4978792;28;20453;-29
2022/11/10 06:57:53;;;;;;;29.95;9.20;;;;;;;;;;4995652;28;20026;-28
2022/11/10 07:00:19;;;;;;;19.95;7.68;;;;;;;;;;4995618;28;20042;-29
2022/11/10 07:02:45;;;;;;;21.02;8.23;;;;;;;;;;4995658;28;20042;-28
2022/11/10 07:05:14;;;;;;;28.98;8.40;;;;;;;;;;4994952;28;20345;-28
2022/11/10 07:07:40;;;;;;;26.33;11.23;;;;;;;;;;4995325;28;20465;-28
2022/11/10 07:10:06;;;;;;;28.52;8.43;;;;;;;;;;4995313;28;20048;-29
2022/11/10 07:12:33;;;;;;;19.70;8.35;;;;;;;;;;4995493;28;20068;-28
2022/11/10 07:14:59;;;;;;;17.05;8.23;;;;;;;;;;4995403;28;20030;-28
2022/11/10 07:17:25;;;;;;;23.58;11.35;;;;;;;;;;4995355;28;20030;-28
2022/11/10 07:19:51;;;;;;;20.88;8.77;;;;;;;;;;4995682;28;20104;-29
2022/11/10 07:22:17;;;;;;;20.13;9.10;;;;;;;;;;4995216;28;20429;-29
2022/11/10 07:24:43;;;;;;;21.05;9.27;;;;;;;;;;4995638;28;20376;-29
2022/11/10 07:27:10;;;;;;;20.88;8.85;;;;;;;;;;4996115;28;20365;-28
2022/11/10 07:29:36;;;;;;;19.70;9.65;;;;;;;;;;4978171;28;20057;-29
2022/11/10 07:32:03;;;;;;;17.75;8.55;;;;;;;;;;4995325;28;20101;-29
2022/11/10 07:34:29;;;;;;;16.05;8.10;;;;;;;;;;4994865;28;20034;-29
2022/11/10 07:36:55;;;;;;;14.23;7.93;;;;;;;;;;4994808;28;20057;-29
2022/11/10 07:39:21;;;;;;;21.40;8.90;;;;;;;;;;4995134;28;20030;-29
2022/11/10 07:41:48;;;;;;;25.05;9.02;;;;;;;;;;4995188;28;20046;-29
2022/11/10 07:44:14;;;;;;;16.25;7.47;;;;;;;;;;4995560;28;20085;-28
2022/11/10 07:46:41;;;;;;;31.42;7.85;;;;;;;;;;5001597;28;20050;-29
2022/11/10 07:49:07;;;;;;;16.00;7.72;;;;;;;;;;5001452;28;20484;-29
2022/11/10 07:51:33;;;;;;;17.45;7.90;;;;;;;;;;5001481;28;20032;-28
2022/11/10 07:53:59;;;;;;;20.73;7.70;;;;;;;;;;5001456;28;20460;-29
2022/11/10 07:56:26;;;;;;;21.10;10.48;;;;;;;;;;5001303;28;20026;-29
2022/11/10 07:58:53;;;;;;;17.77;8.30;;;;;;;;;;5001366;28;20030;-29
2022/11/10 08:01:19;;;;;;;20.70;8.48;;;;;;;;;;5001369;28;20085;-29
2022/11/10 08:03:45;;;;;;;26.42;10.00;;;;;;;;;;5001171;28;20169;-29
2022/11/10 08:06:11;;;;;;;19.88;9.38;;;;;;;;;;5001320;28;20045;-29
2022/11/10 08:08:37;;;;;;;20.92;8.18;;;;;;;;;;5001373;28;20069;-29
2022/11/10 08:11:03;;;;;;;19.17;8.23;;;;;;;;;;5001345;28;20448;-29
2022/11/10 08:13:30;;;;;;;18.00;9.52;;;;;;;;;;5001999;28;20109;-29
2022/11/10 08:15:58;;;;;;;20.58;11.18;;;;;;;;;;5001377;28;20037;-29
2022/11/10 08:18:24;;;;;;;18.25;9.90;;;;;;;;;;5001423;28;20085;-29
2022/11/10 08:20:51;;;;;;;23.83;8.40;;;;;;;;;;5001014;28;20333;-29
2022/11/10 08:23:17;;;;;;;18.20;7.72;;;;;;;;;;4983900;28;20031;-29
2022/11/10 08:25:45;;;;;;;12.88;7.60;;;;;;;;;;5001369;28;20446;-29
2022/11/10 08:28:13;;;;;;;23.70;8.70;;;;;;;;;;5001404;28;20038;-29
2022/11/10 08:30:40;;;;;;;23.85;9.27;;;;;;;;;;5001389;28;20035;-29
2022/11/10 08:33:07;;;;;;;24.58;7.85;;;;;;;;;;5001245;28;20042;-29
2022/11/10 08:35:35;;;;;;;17.40;8.25;;;;;;;;;;5000935;28;20030;-29
2022/11/10 08:38:21;;;;;;;20.08;7.65;;;;;;;;;;5001149;28;20030;-30
2022/11/10 08:40:47;;;;;;;22.17;8.63;;;;;;;;;;5001063;28;20031;-28
2022/11/10 08:43:13;;;;;;;17.88;7.30;;;;;;;;;;5000942;28;20466;-29
2022/11/10 08:45:41;;;;;;;24.35;9.60;;;;;;;;;;5001113;28;20101;-29
2022/11/10 08:48:09;;;;;;;22.63;8.88;;;;;;;;;;5000814;28;20036;-29
2022/11/10 08:50:35;;;;;;;18.00;8.15;;;;;;;;;;5000907;28;20126;-29
2022/11/10 08:53:02;;;;;;;23.05;7.35;;;;;;;;;;4983898;28;20026;-29
2022/11/10 08:55:28;;;;;;;25.45;9.13;;;;;;;;;;5001001;28;20453;-29
2022/11/10 08:57:59;;;;;;;22.55;8.45;;;;;;;;;;4997498;28;20053;-29
2022/11/10 09:00:27;;;;;;;28.83;7.90;;;;;;;;;;4997762;28;20060;-29
2022/11/10 09:02:54;;;;;;;26.73;8.02;;;;;;;;;;4997535;28;20046;-29
2022/11/10 09:05:20;;;;;;;24.15;7.22;;;;;;;;;;4981161;28;20496;-29
2022/11/10 09:07:47;;;;;;;18.95;7.65;;;;;;;;;;4997887;28;20377;-29
2022/11/10 09:10:13;;;;;;;26.38;7.80;;;;;;;;;;4997565;28;20026;-29
2022/11/10 09:12:40;;;;;;;16.17;8.13;;;;;;;;;;4997477;28;20105;-29
2022/11/10 09:15:06;;;;;;;19.52;7.63;;;;;;;;;;4997946;28;20453;-29
2022/11/10 09:17:33;;;;;;;19.45;8.30;;;;;;;;;;4997364;28;20072;-28
2022/11/10 09:19:59;;;;;;;20.05;7.43;;;;;;;;;;4997468;28;20034;-29
2022/11/10 09:22:25;;;;;;;22.48;8.02;;;;;;;;;;4997379;28;20105;-29
2022/11/10 09:24:51;;;;;;;20.75;7.57;;;;;;;;;;4997657;28;20353;-30
2022/11/10 09:27:18;;;;;;;18.25;7.38;;;;;;;;;;4980225;28;20038;-29
2022/11/10 09:29:44;;;;;;;22.98;7.75;;;;;;;;;;4997575;28;20026;-29
2022/11/10 09:32:10;;;;;;;17.48;7.25;;;;;;;;;;4997151;28;20492;-29
2022/11/10 09:34:36;;;;;;;18.83;7.63;;;;;;;;;;4996980;28;20088;-29
2022/11/10 09:37:03;;;;;;;22.02;8.45;;;;;;;;;;4996886;28;20141;-29
2022/11/10 09:39:29;;;;;;;18.92;8.32;;;;;;;;;;4996934;28;20334;-29
2022/11/10 09:41:55;;;;;;;21.20;9.85;;;;;;;;;;4996926;28;20435;-29
2022/11/10 09:44:30;;;;;;;26.73;8.10;;;;;;;;;;4997075;28;20025;-29
2022/11/10 09:47:07;;;;;;;16.08;7.07;;;;;;;;;;4997040;28;20026;-30
2022/11/10 09:49:40;;;;;;;15.77;7.97;;;;;;;;;;4997028;28;20045;-29
2022/11/10 09:52:06;;;;;;;15.27;7.63;;;;;;;;;;4996806;28;20041;-29
2022/11/10 09:54:36;;;;;;;23.65;8.73;;;;;;;;;;4996817;28;20472;-29
2022/11/10 09:57:03;;;;;;;19.30;8.02;;;;;;;;;;4979666;28;20113;-29
2022/11/10 09:59:33;;;;;;;26.27;8.18;;;;;;;;;;4996850;28;20034;-29
2022/11/10 10:02:16;;;;;;;21.92;8.63;;;;;;;;;;4996694;28;20027;-29
2022/11/10 10:04:42;;;;;;;35.97;7.80;;;;;;;;;;4996726;28;20176;-30
2022/11/10 10:07:28;;;;;;;15.48;7.32;;;;;;;;;;4996717;28;20034;-30
2022/11/10 10:09:54;;;;;;;17.08;8.13;;;;;;;;;;4996520;28;20061;-30
2022/11/10 10:12:40;;;;;;;19.30;6.80;;;;;;;;;;4996416;28;20045;-29
2022/11/10 10:15:14;;;;;;;15.88;7.38;;;;;;;;;;4996565;28;20057;-29
2022/11/10 10:17:54;;;;;;;13.77;6.93;;;;;;;;;;4996735;28;20037;-29
2022/11/10 10:20:20;;;;;;;17.40;7.30;;;;;;;;;;4996526;28;20034;-29
2022/11/10 10:22:55;;;;;;;29.98;7.70;;;;;;;;;;4996536;28;20405;-29
2022/11/10 10:25:22;;;;;;;17.58;7.32;;;;;;;;;;4996597;28;20050;-29
2022/11/10 10:27:50;;;;;;;17.60;7.78;;;;;;;;;;4979544;28;20048;-29
2022/11/10 10:30:18;;;;;;;19.05;8.25;;;;;;;;;;4996733;28;20022;-29
2022/11/10 10:32:44;;;;;;;17.38;8.48;;;;;;;;;;4995999;28;20553;-29
2022/11/10 10:35:14;;;;;;;21.92;8.32;;;;;;;;;;4996303;28;20461;-29
2022/11/10 10:37:44;;;;;;;19.88;7.15;;;;;;;;;;4995834;28;20057;-29
2022/11/10 10:40:18;;;;;;;25.77;7.97;;;;;;;;;;4996234;28;20026;-29
2022/11/10 10:42:45;;;;;;;23.02;7.53;;;;;;;;;;4978756;28;20476;-30
2022/11/10 10:45:21;;;;;;;25.88;9.18;;;;;;;;;;4995896;28;20520;-29
2022/11/10 10:47:48;;;;;;;20.00;7.57;;;;;;;;;;4995727;28;20101;-29
2022/11/10 10:50:16;;;;;;;29.63;9.63;;;;;;;;;;4978499;28;20026;-29
2022/11/10 10:52:42;;;;;;;24.98;8.15;;;;;;;;;;4995569;28;20037;-29
2022/11/10 10:55:11;;;;;;;16.77;7.55;;;;;;;;;;4995493;28;20068;-29
2022/11/10 10:57:49;;;;;;;21.70;8.68;;;;;;;;;;4995369;28;20030;-29
2022/11/10 11:00:21;;;;;;;24.23;8.05;;;;;;;;;;4995561;28;20058;-29
2022/11/10 11:03:05;;;;;;;21.95;7.72;;;;;;;;;;4995546;28;20042;-29
2022/11/10 11:05:31;;;;;;;20.83;7.60;;;;;;;;;;4995700;28;20030;-29
2022/11/10 11:08:02;;;;;;;25.00;9.23;;;;;;;;;;4995900;28;20043;-29
2022/11/10 11:10:29;;;;;;;28.52;10.25;;;;;;;;;;4995423;28;20427;-29
2022/11/10 11:13:12;;;;;;;21.75;7.07;;;;;;;;;;4995292;28;20319;-29
2022/11/10 11:15:38;;;;;;;27.50;7.13;;;;;;;;;;4995443;28;20516;-29
2022/11/10 11:18:11;;;;;;;19.20;7.18;;;;;;;;;;4995606;28;20048;-30
2022/11/10 11:20:37;;;;;;;23.02;8.02;;;;;;;;;;4994886;28;20140;-29
2022/11/10 11:23:21;;;;;;;18.08;7.15;;;;;;;;;;4995485;28;20094;-29
2022/11/10 11:25:48;;;;;;;25.23;9.27;;;;;;;;;;4995243;28;20048;-29
2022/11/10 11:28:25;;;;;;;18.88;6.47;;;;;;;;;;4995298;28;20030;-29
2022/11/10 11:30:57;;;;;;;15.65;7.20;;;;;;;;;;4995518;28;20026;-29
2022/11/10 11:33:32;;;;;;;20.88;7.60;;;;;;;;;;4995169;28;20113;-29
2022/11/10 11:36:01;;;;;;;24.23;7.22;;;;;;;;;;4995070;28;20060;-29
2022/11/10 11:38:32;;;;;;;21.80;8.35;;;;;;;;;;4995353;28;20022;-29
2022/11/10 11:41:01;;;;;;;10.43;6.70;;;;;;;;;;4995341;28;20400;-29
2022/11/10 11:43:38;;;;;;;22.48;8.55;;;;;;;;;;4994882;28;20023;-29
2022/11/10 11:46:04;;;;;;;24.90;6.40;;;;;;;;;;4995385;28;20033;-29
2022/11/10 11:48:44;;;;;;;27.40;7.90;;;;;;;;;;4995081;28;20025;-29
2022/11/10 11:51:13;;;;;;;31.48;7.60;;;;;;;;;;4995015;28;20027;-29
2022/11/10 11:53:54;;;;;;;29.70;8.23;;;;;;;;;;4994908;28;20030;-29
2022/11/10 11:56:46;;;;;;;17.20;7.07;;;;;;;;;;4994866;28;20038;-29
2022/11/10 11:59:20;;;;;;;26.33;7.70;;;;;;;;;;4974531;28;20366;-29
2022/11/10 12:01:46;;;;;;;22.83;8.25;;;;;;;;;;4994861;28;20031;-29
2022/11/10 12:04:12;;;;;;;30.90;8.05;;;;;;;;;;4995066;28;20400;-29
2022/11/10 12:06:47;;;;;;;22.70;7.35;;;;;;;;;;4994945;28;20053;-29
2022/11/10 12:09:13;;;;;;;14.80;6.63;;;;;;;;;;4995140;28;20117;-29
2022/11/10 12:11:54;;;;;;;26.15;8.20;;;;;;;;;;4995008;28;20053;-29
2022/11/10 12:14:20;;;;;;;24.42;7.95;;;;;;;;;;4994788;28;20042;-29
2022/11/10 12:17:06;;;;;;;26.15;8.15;;;;;;;;;;4994571;28;20061;-29
2022/11/10 12:19:50;;;;;;;17.17;6.10;;;;;;;;;;4955605;28;20048;-29
2022/11/10 12:22:20;;;;;;;26.60;6.93;;;;;;;;;;4995060;28;20061;-29
2022/11/10 12:24:49;;;;;;;21.40;6.07;;;;;;;;;;4994828;28;20029;-29
2022/11/10 12:27:30;;;;;;;14.65;5.47;;;;;;;;;;4995079;28;20405;-29
2022/11/10 12:29:59;;;;;;;13.55;6.45;;;;;;;;;;4994676;28;20110;-29
2022/11/10 12:32:27;;;;;;;13.27;5.95;;;;;;;;;;4997655;28;20105;-29
2022/11/10 12:35:10;;;;;;;20.77;7.43;;;;;;;;;;4998324;28;20110;-29
2022/11/10 12:37:39;;;;;;;20.60;7.97;;;;;;;;;;4998507;28;20026;-29
2022/11/10 12:40:14;;;;;;;21.27;7.28;;;;;;;;;;4998265;28;20027;-29
2022/11/10 12:42:41;;;;;;;19.30;7.05;;;;;;;;;;4980941;28;20089;-29
2022/11/10 12:45:15;;;;;;;19.48;6.35;;;;;;;;;;4998462;28;20030;-29
2022/11/10 12:47:43;;;;;;;19.83;6.13;;;;;;;;;;4998169;28;20022;-29
2022/11/10 12:50:15;;;;;;;12.98;5.55;;;;;;;;;;4998093;28;20046;-29
2022/11/10 12:53:02;;;;;;;22.80;7.03;;;;;;;;;;4997955;28;20374;-28
2022/11/10 12:55:39;;;;;;;25.20;6.90;;;;;;;;;;4997667;28;20035;-29
2022/11/10 12:58:06;;;;;;;12.88;7.97;;;;;;;;;;4997751;28;20050;-29
2022/11/10 13:00:37;;;;;;;20.70;6.13;;;;;;;;;;4998148;28;20034;-29
2022/11/10 13:03:03;;;;;;;35.00;6.45;;;;;;;;;;4980606;28;20405;-29
2022/11/10 13:05:40;;;;;;;20.80;6.95;;;;;;;;;;4997720;28;20038;-29
2022/11/10 13:08:13;;;;;;;25.55;6.90;;;;;;;;;;4981152;28;20038;-29
2022/11/10 13:10:47;;;;;;;29.30;8.38;;;;;;;;;;4998041;28;20057;-29
2022/11/10 13:13:14;;;;;;;25.88;6.15;;;;;;;;;;4980522;28;20108;-28
2022/11/10 13:15:45;;;;;;;16.25;6.25;;;;;;;;;;4997694;28;20054;-29
2022/11/10 13:18:21;;;;;;;17.95;6.40;;;;;;;;;;4980438;28;20110;-29
2022/11/10 13:20:49;;;;;;;35.65;6.10;;;;;;;;;;4997914;28;20031;-29
2022/11/10 13:23:26;;;;;;;25.88;7.30;;;;;;;;;;4997513;28;20335;-29
2022/11/10 13:26:18;;;;;;;29.70;8.10;;;;;;;;;;4997532;28;20401;-29
2022/11/10 13:28:48;;;;;;;28.73;6.78;;;;;;;;;;4994303;28;20047;-29
2022/11/10 13:31:26;;;;;;;24.95;7.55;;;;;;;;;;4997431;28;20026;-29
2022/11/10 13:34:04;;;;;;;23.08;6.75;;;;;;;;;;4997647;28;20022;-29
2022/11/10 13:36:37;;;;;;;31.95;7.65;;;;;;;;;;4997298;28;20030;-29
2022/11/10 13:39:19;;;;;;;21.65;6.07;;;;;;;;;;4997549;28;20034;-29
2022/11/10 13:42:11;;;;;;;19.50;6.40;;;;;;;;;;4997409;28;20026;-29
2022/11/10 13:44:39;;;;;;;38.67;9.07;;;;;;;;;;4993263;28;20066;-29
2022/11/10 13:47:08;;;;;;;22.40;6.63;;;;;;;;;;4996928;28;20040;-29
2022/11/10 13:49:54;;;;;;;24.95;7.82;;;;;;;;;;4997089;28;20412;-29
2022/11/10 13:52:29;;;;;;;16.15;6.72;;;;;;;;;;4997167;28;20022;-29
2022/11/10 13:55:01;;;;;;;27.08;7.28;;;;;;;;;;4996746;28;20035;-29
2022/11/10 13:57:41;;;;;;;16.02;6.63;;;;;;;;;;4996869;28;20117;-29
2022/11/10 14:00:14;;;;;;;19.42;7.35;;;;;;;;;;4996566;28;20026;-29
2022/11/10 14:02:51;;;;;;;22.27;7.60;;;;;;;;;;4979275;28;20046;-29
2022/11/10 14:05:40;;;;;;;19.95;7.68;;;;;;;;;;4996669;28;20065;-29
2022/11/10 14:08:07;;;;;;;17.67;6.03;;;;;;;;;;4996824;28;20045;-29
2022/11/10 14:10:53;;;;;;;24.35;6.88;;;;;;;;;;4996891;28;20026;-29
2022/11/10 14:13:22;;;;;;;22.85;7.50;;;;;;;;;;4983167;28;20060;-29
2022/11/10 14:15:49;;;;;;;21.58;7.03;;;;;;;;;;4996817;28;20042;-29
2022/11/10 14:18:20;;;;;;;19.70;6.95;;;;;;;;;;4996462;28;20369;-29
2022/11/10 14:20:46;;;;;;;;;;;;;;;;;;4996805;28;20101;-29
2022/11/10 14:23:19;;;;;;;31.45;6.30;;;;;;;;;;4996479;28;20337;-29
2022/11/10 14:25:46;;;;;;;25.50;7.50;;;;;;;;;;4996376;28;20106;-29
2022/11/10 14:28:28;;;;;;;21.90;6.65;;;;;;;;;;4996563;28;20085;-29
2022/11/10 14:30:55;;;;;;;22.90;7.80;;;;;;;;;;4996450;28;20030;-29
2022/11/10 14:33:22;;;;;;;19.58;5.90;;;;;;;;;;4996395;28;20405;-29
2022/11/10 14:35:50;;;;;;;20.42;8.35;;;;;;;;;;4996192;28;20034;-29
2022/11/10 14:38:25;;;;;;;20.63;5.78;;;;;;;;;;4996378;28;20026;-29
2022/11/10 14:40:58;;;;;;;21.85;6.72;;;;;;;;;;4996091;28;20361;-29
2022/11/10 14:43:35;;;;;;;14.07;5.38;;;;;;;;;;4995934;28;20353;-29
2022/11/10 14:46:02;;;;;;;13.70;6.18;;;;;;;;;;4996655;28;20034;-29
2022/11/10 14:48:31;;;;;;;28.25;7.63;;;;;;;;;;4995809;28;20106;-29
2022/11/10 14:51:18;;;;;;;23.35;7.25;;;;;;;;;;4995835;28;20098;-29